logo
Rechercher aéroport 
image banner adimage banner adimage banner ad
image banner ad

2CA5 - Platform Emmy

Situé à Huntington Beach, United States

ICAO - 2CA5, IATA -

Données fournies par Airmate  

Information générale

Coordonnées: N33°39'44" W118°2'40"
Élévation : 87 feet MSL.
Variation magnétique : 14° East
Voir autres Aéroports à California

Données opérationnelles

Special qualification required
Heure actuelle UTC:
Heure actuelle locale:
Météo à : KSLI - Los Alamitos Aaf ( 14 km )
METAR: KSLI 261555Z 00000KT 10SM FEW120 FEW200 23/18 A2990 RMK AO2A SLP128 T02270184
TAF: TAF KSLI 261300Z 2613/2719 VRB06KT 8000 BR SKC QNH2981INS TX30/2623Z TN19/2614Z
Voir NOTAMs / SUP AIP / TFR affectant cet aéroport [VIEW]
Fréquences de communication: [VIEW]

Pistes:

Coordonnées de l'aéroport

Adresse: Huntington Beach United States

Vue satellite de 2CA5